sensor_id;sensor_type;location;lat;lon;timestamp;pressure;altitude;pressure_sealevel;temperature;humidity
55517;BME280;41724;51.176;-0.708;2023-10-09T00:00:35;101761.95;;;15.78;59.31
55517;BME280;41724;51.176;-0.708;2023-10-09T00:03:02;101761.49;;;15.98;59.15
55517;BME280;41724;51.176;-0.708;2023-10-09T00:05:30;101759.63;;;16.17;59.16
55517;BME280;41724;51.176;-0.708;2023-10-09T00:07:57;101753.69;;;16.03;58.93
55517;BME280;41724;51.176;-0.708;2023-10-09T00:10:24;101749.73;;;16.20;58.93
55517;BME280;41724;51.176;-0.708;2023-10-09T00:12:51;101751.45;;;16.28;58.42
55517;BME280;41724;51.176;-0.708;2023-10-09T00:15:18;101752.55;;;16.08;58.81
55517;BME280;41724;51.176;-0.708;2023-10-09T00:17:45;101752.94;;;15.87;58.20
55517;BME280;41724;51.176;-0.708;2023-10-09T00:20:12;101752.37;;;16.44;58.10
55517;BME280;41724;51.176;-0.708;2023-10-09T00:22:39;101754.17;;;16.35;58.34
55517;BME280;41724;51.176;-0.708;2023-10-09T00:25:08;101754.45;;;16.11;59.44
55517;BME280;41724;51.176;-0.708;2023-10-09T00:27:35;101755.70;;;16.21;58.94
55517;BME280;41724;51.176;-0.708;2023-10-09T00:30:03;101751.37;;;16.29;58.20
55517;BME280;41724;51.176;-0.708;2023-10-09T00:32:30;101749.15;;;16.28;57.94
55517;BME280;41724;51.176;-0.708;2023-10-09T00:34:57;101745.49;;;16.26;58.14
55517;BME280;41724;51.176;-0.708;2023-10-09T00:37:25;101746.14;;;15.89;58.92
55517;BME280;41724;51.176;-0.708;2023-10-09T00:39:52;101746.79;;;16.04;58.72
55517;BME280;41724;51.176;-0.708;2023-10-09T00:42:19;101743.33;;;15.96;58.38
55517;BME280;41724;51.176;-0.708;2023-10-09T00:44:47;101745.23;;;15.63;59.59
55517;BME280;41724;51.176;-0.708;2023-10-09T00:47:15;101744.29;;;16.02;58.70
55517;BME280;41724;51.176;-0.708;2023-10-09T00:49:42;101746.87;;;15.94;58.62
55517;BME280;41724;51.176;-0.708;2023-10-09T00:52:10;101747.64;;;15.54;60.01
55517;BME280;41724;51.176;-0.708;2023-10-09T00:54:37;101746.96;;;15.58;59.96
55517;BME280;41724;51.176;-0.708;2023-10-09T00:57:03;101746.86;;;15.81;59.11
55517;BME280;41724;51.176;-0.708;2023-10-09T00:59:32;101739.84;;;15.45;59.84
55517;BME280;41724;51.176;-0.708;2023-10-09T01:02:01;101736.21;;;15.68;59.04
55517;BME280;41724;51.176;-0.708;2023-10-09T01:04:28;101729.61;;;15.80;59.39
55517;BME280;41724;51.176;-0.708;2023-10-09T01:06:55;101730.17;;;15.78;58.57
55517;BME280;41724;51.176;-0.708;2023-10-09T01:09:22;101731.21;;;15.76;58.41
55517;BME280;41724;51.176;-0.708;2023-10-09T01:11:50;101733.02;;;16.03;58.16
55517;BME280;41724;51.176;-0.708;2023-10-09T01:14:17;101730.03;;;15.99;58.76
55517;BME280;41724;51.176;-0.708;2023-10-09T01:16:45;101732.26;;;15.81;58.76
55517;BME280;41724;51.176;-0.708;2023-10-09T01:19:12;101737.52;;;16.04;58.12
55517;BME280;41724;51.176;-0.708;2023-10-09T01:21:39;101728.74;;;15.88;59.10
55517;BME280;41724;51.176;-0.708;2023-10-09T01:24:07;101731.80;;;16.01;58.70
55517;BME280;41724;51.176;-0.708;2023-10-09T01:26:35;101734.59;;;15.89;59.21
55517;BME280;41724;51.176;-0.708;2023-10-09T01:29:03;101739.35;;;15.97;58.70
55517;BME280;41724;51.176;-0.708;2023-10-09T01:31:30;101745.40;;;15.72;59.45
55517;BME280;41724;51.176;-0.708;2023-10-09T01:33:57;101748.60;;;15.84;59.05
55517;BME280;41724;51.176;-0.708;2023-10-09T01:36:24;101751.30;;;15.89;58.99
55517;BME280;41724;51.176;-0.708;2023-10-09T01:38:52;101748.90;;;15.65;59.56
55517;BME280;41724;51.176;-0.708;2023-10-09T01:41:19;101751.03;;;15.72;59.46
55517;BME280;41724;51.176;-0.708;2023-10-09T01:43:47;101748.07;;;15.17;60.09
55517;BME280;41724;51.176;-0.708;2023-10-09T01:46:13;101749.72;;;15.55;60.68
55517;BME280;41724;51.176;-0.708;2023-10-09T01:48:41;101745.72;;;15.33;60.37
55517;BME280;41724;51.176;-0.708;2023-10-09T01:51:13;101747.74;;;15.29;60.33
55517;BME280;41724;51.176;-0.708;2023-10-09T01:53:40;101744.78;;;15.37;59.59
55517;BME280;41724;51.176;-0.708;2023-10-09T01:56:11;101745.44;;;15.36;60.12
55517;BME280;41724;51.176;-0.708;2023-10-09T01:58:38;101741.73;;;14.88;61.30
55517;BME280;41724;51.176;-0.708;2023-10-09T02:01:06;101736.59;;;15.29;59.73
55517;BME280;41724;51.176;-0.708;2023-10-09T02:03:33;101737.98;;;15.12;60.15
55517;BME280;41724;51.176;-0.708;2023-10-09T02:06:00;101739.12;;;15.26;59.67
55517;BME280;41724;51.176;-0.708;2023-10-09T02:08:27;101737.76;;;15.75;58.89
55517;BME280;41724;51.176;-0.708;2023-10-09T02:10:54;101737.42;;;15.19;59.36
55517;BME280;41724;51.176;-0.708;2023-10-09T02:13:22;101735.71;;;15.21;59.39
55517;BME280;41724;51.176;-0.708;2023-10-09T02:15:49;101729.91;;;15.24;59.29
55517;BME280;41724;51.176;-0.708;2023-10-09T02:18:17;101725.52;;;15.08;59.42
55517;BME280;41724;51.176;-0.708;2023-10-09T02:20:46;101724.94;;;15.05;59.69
55517;BME280;41724;51.176;-0.708;2023-10-09T02:23:14;101726.59;;;14.98;60.34
55517;BME280;41724;51.176;-0.708;2023-10-09T02:25:41;101723.40;;;14.82;60.25
55517;BME280;41724;51.176;-0.708;2023-10-09T02:28:08;101723.57;;;14.82;59.99
55517;BME280;41724;51.176;-0.708;2023-10-09T02:30:34;101721.95;;;15.15;59.67
55517;BME280;41724;51.176;-0.708;2023-10-09T02:33:02;101723.33;;;14.64;59.92
55517;BME280;41724;51.176;-0.708;2023-10-09T02:35:30;101723.53;;;15.22;59.52
55517;BME280;41724;51.176;-0.708;2023-10-09T02:37:57;101722.66;;;15.11;60.16
55517;BME280;41724;51.176;-0.708;2023-10-09T02:40:27;101717.23;;;15.27;59.75
55517;BME280;41724;51.176;-0.708;2023-10-09T02:42:54;101715.88;;;14.68;59.61
55517;BME280;41724;51.176;-0.708;2023-10-09T02:45:21;101714.59;;;14.93;59.51
55517;BME280;41724;51.176;-0.708;2023-10-09T02:47:49;101714.54;;;14.87;59.74
55517;BME280;41724;51.176;-0.708;2023-10-09T02:50:15;101713.46;;;15.17;59.10
55517;BME280;41724;51.176;-0.708;2023-10-09T02:52:43;101710.44;;;15.27;58.71
55517;BME280;41724;51.176;-0.708;2023-10-09T02:55:10;101712.94;;;14.93;60.15
55517;BME280;41724;51.176;-0.708;2023-10-09T02:57:37;101710.23;;;14.93;59.46
55517;BME280;41724;51.176;-0.708;2023-10-09T03:00:06;101708.56;;;14.92;59.70
55517;BME280;41724;51.176;-0.708;2023-10-09T03:02:32;101705.13;;;14.94;59.62
55517;BME280;41724;51.176;-0.708;2023-10-09T03:05:00;101700.74;;;14.92;59.48
55517;BME280;41724;51.176;-0.708;2023-10-09T03:07:27;101692.93;;;14.59;59.70
55517;BME280;41724;51.176;-0.708;2023-10-09T03:09:54;101693.69;;;14.57;60.09
55517;BME280;41724;51.176;-0.708;2023-10-09T03:12:22;101694.21;;;14.52;59.62
55517;BME280;41724;51.176;-0.708;2023-10-09T03:14:49;101692.23;;;14.67;59.05
55517;BME280;41724;51.176;-0.708;2023-10-09T03:17:17;101687.96;;;14.32;60.39
55517;BME280;41724;51.176;-0.708;2023-10-09T03:19:43;101684.87;;;14.77;59.20
55517;BME280;41724;51.176;-0.708;2023-10-09T03:22:11;101685.52;;;14.84;58.65
55517;BME280;41724;51.176;-0.708;2023-10-09T03:24:38;101686.49;;;14.82;59.02
55517;BME280;41724;51.176;-0.708;2023-10-09T03:27:05;101682.57;;;14.53;59.36
55517;BME280;41724;51.176;-0.708;2023-10-09T03:29:32;101683.54;;;14.62;59.29
55517;BME280;41724;51.176;-0.708;2023-10-09T03:31:59;101682.35;;;14.58;59.04
55517;BME280;41724;51.176;-0.708;2023-10-09T03:34:26;101685.81;;;14.41;59.76
55517;BME280;41724;51.176;-0.708;2023-10-09T03:36:53;101683.92;;;14.55;59.47
55517;BME280;41724;51.176;-0.708;2023-10-09T03:39:20;101681.10;;;14.46;59.39
55517;BME280;41724;51.176;-0.708;2023-10-09T03:41:48;101678.72;;;14.62;59.14
55517;BME280;41724;51.176;-0.708;2023-10-09T03:44:15;101675.92;;;14.60;58.67
55517;BME280;41724;51.176;-0.708;2023-10-09T03:46:42;101672.54;;;14.59;58.85
55517;BME280;41724;51.176;-0.708;2023-10-09T03:49:10;101666.32;;;14.67;58.38
55517;BME280;41724;51.176;-0.708;2023-10-09T03:51:37;101663.09;;;14.59;58.85
55517;BME280;41724;51.176;-0.708;2023-10-09T03:54:04;101663.47;;;14.28;58.74
55517;BME280;41724;51.176;-0.708;2023-10-09T03:56:31;101660.58;;;14.33;59.49
55517;BME280;41724;51.176;-0.708;2023-10-09T03:58:58;101655.89;;;14.28;59.44
55517;BME280;41724;51.176;-0.708;2023-10-09T04:01:26;101650.12;;;14.34;59.01
55517;BME280;41724;51.176;-0.708;2023-10-09T04:03:53;101647.65;;;14.67;59.07
55517;BME280;41724;51.176;-0.708;2023-10-09T04:06:20;101648.77;;;14.57;58.39
55517;BME280;41724;51.176;-0.708;2023-10-09T04:08:47;101657.51;;;14.40;58.77
55517;BME280;41724;51.176;-0.708;2023-10-09T04:11:15;101660.15;;;14.46;58.50
55517;BME280;41724;51.176;-0.708;2023-10-09T04:13:43;101662.75;;;14.55;59.21
55517;BME280;41724;51.176;-0.708;2023-10-09T04:16:11;101667.56;;;14.33;59.29
55517;BME280;41724;51.176;-0.708;2023-10-09T04:18:37;101667.62;;;14.48;59.01
55517;BME280;41724;51.176;-0.708;2023-10-09T04:21:05;101671.55;;;14.29;59.60
55517;BME280;41724;51.176;-0.708;2023-10-09T04:23:32;101662.57;;;14.11;60.23
55517;BME280;41724;51.176;-0.708;2023-10-09T04:25:59;101659.79;;;14.29;59.95
55517;BME280;41724;51.176;-0.708;2023-10-09T04:28:26;101661.04;;;14.44;59.30
55517;BME280;41724;51.176;-0.708;2023-10-09T04:30:53;101664.95;;;14.14;59.35
55517;BME280;41724;51.176;-0.708;2023-10-09T04:33:20;101666.04;;;14.02;60.32
55517;BME280;41724;51.176;-0.708;2023-10-09T04:35:47;101674.54;;;14.40;60.08
55517;BME280;41724;51.176;-0.708;2023-10-09T04:38:13;101683.39;;;14.37;59.76
55517;BME280;41724;51.176;-0.708;2023-10-09T04:40:41;101689.77;;;14.44;59.66
55517;BME280;41724;51.176;-0.708;2023-10-09T04:43:08;101692.33;;;14.45;59.85
55517;BME280;41724;51.176;-0.708;2023-10-09T04:45:36;101685.41;;;14.37;60.21
55517;BME280;41724;51.176;-0.708;2023-10-09T04:48:04;101682.06;;;14.79;59.77
55517;BME280;41724;51.176;-0.708;2023-10-09T04:50:31;101682.91;;;14.45;60.22
55517;BME280;41724;51.176;-0.708;2023-10-09T04:52:58;101680.21;;;14.30;59.88
55517;BME280;41724;51.176;-0.708;2023-10-09T04:55:25;101677.81;;;14.49;59.94
55517;BME280;41724;51.176;-0.708;2023-10-09T04:57:52;101676.57;;;14.66;59.49
55517;BME280;41724;51.176;-0.708;2023-10-09T05:00:19;101680.93;;;14.54;59.80
55517;BME280;41724;51.176;-0.708;2023-10-09T05:02:47;101690.06;;;14.57;59.78
55517;BME280;41724;51.176;-0.708;2023-10-09T05:05:14;101690.90;;;14.51;60.10
55517;BME280;41724;51.176;-0.708;2023-10-09T05:07:41;101695.60;;;14.56;60.23
55517;BME280;41724;51.176;-0.708;2023-10-09T05:10:08;101693.48;;;14.68;60.16
55517;BME280;41724;51.176;-0.708;2023-10-09T05:12:34;101694.38;;;14.16;61.38
55517;BME280;41724;51.176;-0.708;2023-10-09T05:15:02;101698.48;;;14.33;60.86
55517;BME280;41724;51.176;-0.708;2023-10-09T05:17:29;101698.06;;;14.25;61.18
55517;BME280;41724;51.176;-0.708;2023-10-09T05:19:56;101693.52;;;14.51;60.11
55517;BME280;41724;51.176;-0.708;2023-10-09T05:22:23;101695.62;;;14.63;59.74
55517;BME280;41724;51.176;-0.708;2023-10-09T05:24:50;101696.45;;;14.57;59.94
55517;BME280;41724;51.176;-0.708;2023-10-09T05:27:17;101694.88;;;14.62;59.72
55517;BME280;41724;51.176;-0.708;2023-10-09T05:29:44;101694.64;;;14.43;59.40
55517;BME280;41724;51.176;-0.708;2023-10-09T05:32:11;101697.28;;;14.38;59.95
55517;BME280;41724;51.176;-0.708;2023-10-09T05:34:38;101697.61;;;14.44;59.85
55517;BME280;41724;51.176;-0.708;2023-10-09T05:37:06;101697.66;;;14.56;59.86
55517;BME280;41724;51.176;-0.708;2023-10-09T05:39:33;101700.42;;;14.71;59.65
55517;BME280;41724;51.176;-0.708;2023-10-09T05:42:01;101702.31;;;14.55;59.15
55517;BME280;41724;51.176;-0.708;2023-10-09T05:44:28;101700.80;;;14.50;59.63
55517;BME280;41724;51.176;-0.708;2023-10-09T05:46:55;101696.87;;;14.50;59.47
55517;BME280;41724;51.176;-0.708;2023-10-09T05:49:22;101699.51;;;14.72;59.35
55517;BME280;41724;51.176;-0.708;2023-10-09T05:51:49;101691.66;;;14.06;60.34
55517;BME280;41724;51.176;-0.708;2023-10-09T05:54:16;101675.38;;;14.51;59.27
55517;BME280;41724;51.176;-0.708;2023-10-09T05:56:43;101671.88;;;14.47;59.40
55517;BME280;41724;51.176;-0.708;2023-10-09T05:59:10;101673.98;;;14.35;59.54
55517;BME280;41724;51.176;-0.708;2023-10-09T06:01:38;101683.80;;;14.46;59.22
55517;BME280;41724;51.176;-0.708;2023-10-09T06:04:05;101693.24;;;14.32;59.21
55517;BME280;41724;51.176;-0.708;2023-10-09T06:06:32;101688.61;;;14.06;60.05
55517;BME280;41724;51.176;-0.708;2023-10-09T06:09:00;101691.95;;;14.24;59.94
55517;BME280;41724;51.176;-0.708;2023-10-09T06:11:27;101696.77;;;14.36;59.91
55517;BME280;41724;51.176;-0.708;2023-10-09T06:13:56;101691.12;;;14.24;59.90
55517;BME280;41724;51.176;-0.708;2023-10-09T06:16:23;101689.08;;;14.18;61.38
55517;BME280;41724;51.176;-0.708;2023-10-09T06:18:50;101694.94;;;14.09;61.63
55517;BME280;41724;51.176;-0.708;2023-10-09T06:21:17;101705.07;;;14.33;60.87
55517;BME280;41724;51.176;-0.708;2023-10-09T06:23:44;101710.84;;;14.16;60.68
55517;BME280;41724;51.176;-0.708;2023-10-09T06:26:11;101716.49;;;14.20;60.71
55517;BME280;41724;51.176;-0.708;2023-10-09T06:28:39;101706.02;;;13.99;61.60
55517;BME280;41724;51.176;-0.708;2023-10-09T06:31:05;101700.23;;;14.06;60.32
55517;BME280;41724;51.176;-0.708;2023-10-09T06:33:33;101701.20;;;14.34;60.19
55517;BME280;41724;51.176;-0.708;2023-10-09T06:36:00;101702.44;;;14.46;60.22
55517;BME280;41724;51.176;-0.708;2023-10-09T06:38:27;101703.60;;;14.19;60.34
55517;BME280;41724;51.176;-0.708;2023-10-09T06:40:54;101716.76;;;14.33;60.28
55517;BME280;41724;51.176;-0.708;2023-10-09T06:43:22;101722.78;;;14.62;60.15
55517;BME280;41724;51.176;-0.708;2023-10-09T06:45:49;101720.11;;;14.86;60.00
55517;BME280;41724;51.176;-0.708;2023-10-09T06:48:17;101727.82;;;14.97;59.94
55517;BME280;41724;51.176;-0.708;2023-10-09T06:50:44;101721.17;;;14.93;60.39
55517;BME280;41724;51.176;-0.708;2023-10-09T06:53:11;101717.56;;;14.46;61.33
55517;BME280;41724;51.176;-0.708;2023-10-09T06:55:39;101723.68;;;14.95;60.30
55517;BME280;41724;51.176;-0.708;2023-10-09T06:58:06;101719.52;;;15.02;60.26
55517;BME280;41724;51.176;-0.708;2023-10-09T07:00:38;101725.67;;;14.96;60.79
55517;BME280;41724;51.176;-0.708;2023-10-09T07:03:05;101742.08;;;15.35;61.20
55517;BME280;41724;51.176;-0.708;2023-10-09T07:05:33;101755.41;;;15.04;60.95
55517;BME280;41724;51.176;-0.708;2023-10-09T07:08:00;101733.90;;;15.57;60.99
55517;BME280;41724;51.176;-0.708;2023-10-09T07:10:27;101725.04;;;15.57;61.95
55517;BME280;41724;51.176;-0.708;2023-10-09T07:12:54;101725.35;;;15.46;62.09
55517;BME280;41724;51.176;-0.708;2023-10-09T07:15:21;101763.34;;;15.06;62.97
55517;BME280;41724;51.176;-0.708;2023-10-09T07:17:50;101758.82;;;15.64;63.21
55517;BME280;41724;51.176;-0.708;2023-10-09T07:20:17;101753.34;;;15.48;63.38
55517;BME280;41724;51.176;-0.708;2023-10-09T07:22:44;101729.31;;;15.88;63.28
55517;BME280;41724;51.176;-0.708;2023-10-09T07:25:11;101735.00;;;16.15;62.43
55517;BME280;41724;51.176;-0.708;2023-10-09T07:27:39;101729.83;;;16.44;61.33
55517;BME280;41724;51.176;-0.708;2023-10-09T07:30:06;101733.41;;;16.08;62.71
55517;BME280;41724;51.176;-0.708;2023-10-09T07:32:33;101744.35;;;16.06;62.80
55517;BME280;41724;51.176;-0.708;2023-10-09T07:35:01;101734.37;;;16.28;62.91
55517;BME280;41724;51.176;-0.708;2023-10-09T07:37:28;101723.32;;;16.53;62.58
55517;BME280;41724;51.176;-0.708;2023-10-09T07:39:55;101742.63;;;16.69;62.08
55517;BME280;41724;51.176;-0.708;2023-10-09T07:42:22;101728.67;;;16.45;62.21
55517;BME280;41724;51.176;-0.708;2023-10-09T07:44:49;101709.06;;;16.71;62.92
55517;BME280;41724;51.176;-0.708;2023-10-09T07:47:16;101734.27;;;16.52;63.80
55517;BME280;41724;51.176;-0.708;2023-10-09T07:49:44;101742.35;;;16.90;62.62
55517;BME280;41724;51.176;-0.708;2023-10-09T07:52:11;101724.55;;;16.97;63.15
55517;BME280;41724;51.176;-0.708;2023-10-09T07:54:38;101722.48;;;17.00;63.02
55517;BME280;41724;51.176;-0.708;2023-10-09T07:57:05;101765.85;;;16.42;64.57
55517;BME280;41724;51.176;-0.708;2023-10-09T07:59:32;101755.50;;;16.82;64.28
55517;BME280;41724;51.176;-0.708;2023-10-09T08:01:59;101733.03;;;16.84;64.24
55517;BME280;41724;51.176;-0.708;2023-10-09T08:04:26;101727.32;;;17.10;64.51
55517;BME280;41724;51.176;-0.708;2023-10-09T08:06:53;101727.26;;;17.06;63.40
55517;BME280;41724;51.176;-0.708;2023-10-09T08:09:21;101735.18;;;17.78;62.77
55517;BME280;41724;51.176;-0.708;2023-10-09T08:11:48;101747.93;;;17.89;62.70
55517;BME280;41724;51.176;-0.708;2023-10-09T08:14:15;101789.24;;;17.40;62.86
55517;BME280;41724;51.176;-0.708;2023-10-09T08:16:43;101800.38;;;17.58;62.69
55517;BME280;41724;51.176;-0.708;2023-10-09T08:19:10;101773.16;;;17.65;63.39
55517;BME280;41724;51.176;-0.708;2023-10-09T08:21:36;101771.12;;;18.36;63.14
55517;BME280;41724;51.176;-0.708;2023-10-09T08:24:04;101769.66;;;18.08;63.37
55517;BME280;41724;51.176;-0.708;2023-10-09T08:26:31;101790.26;;;18.05;63.16
55517;BME280;41724;51.176;-0.708;2023-10-09T08:28:59;101778.91;;;18.25;63.29
55517;BME280;41724;51.176;-0.708;2023-10-09T08:31:26;101762.85;;;18.23;63.58
55517;BME280;41724;51.176;-0.708;2023-10-09T08:33:53;101794.92;;;18.11;63.10
55517;BME280;41724;51.176;-0.708;2023-10-09T08:36:20;101821.85;;;17.81;63.88
55517;BME280;41724;51.176;-0.708;2023-10-09T08:38:47;101791.41;;;17.03;66.11
55517;BME280;41724;51.176;-0.708;2023-10-09T08:41:14;101776.00;;;18.13;63.88
55517;BME280;41724;51.176;-0.708;2023-10-09T08:43:43;101778.65;;;17.89;65.02
55517;BME280;41724;51.176;-0.708;2023-10-09T08:46:14;101798.64;;;18.39;63.69
55517;BME280;41724;51.176;-0.708;2023-10-09T08:48:42;101803.75;;;18.38;64.22
55517;BME280;41724;51.176;-0.708;2023-10-09T08:51:09;101789.51;;;18.56;63.83
55517;BME280;41724;51.176;-0.708;2023-10-09T08:53:37;101783.70;;;18.89;63.41
55517;BME280;41724;51.176;-0.708;2023-10-09T08:56:05;101797.82;;;19.52;62.49
55517;BME280;41724;51.176;-0.708;2023-10-09T08:58:32;101801.38;;;19.39;63.12
55517;BME280;41724;51.176;-0.708;2023-10-09T09:00:59;101799.91;;;19.53;62.75
55517;BME280;41724;51.176;-0.708;2023-10-09T09:03:29;101792.11;;;18.70;66.32
55517;BME280;41724;51.176;-0.708;2023-10-09T09:06:04;101785.11;;;19.24;65.63
55517;BME280;41724;51.176;-0.708;2023-10-09T09:08:33;101775.73;;;19.64;64.56
55517;BME280;41724;51.176;-0.708;2023-10-09T09:11:02;101778.61;;;19.88;64.25
55517;BME280;41724;51.176;-0.708;2023-10-09T09:13:29;101775.24;;;19.97;63.81
55517;BME280;41724;51.176;-0.708;2023-10-09T09:15:56;101771.97;;;20.58;63.02
55517;BME280;41724;51.176;-0.708;2023-10-09T09:18:24;101778.64;;;20.82;61.73
55517;BME280;41724;51.176;-0.708;2023-10-09T09:20:50;101783.14;;;20.65;60.87
55517;BME280;41724;51.176;-0.708;2023-10-09T09:23:17;101780.76;;;20.90;60.85
55517;BME280;41724;51.176;-0.708;2023-10-09T09:25:46;101777.71;;;19.99;62.63
55517;BME280;41724;51.176;-0.708;2023-10-09T09:28:14;101770.72;;;20.97;61.47
55517;BME280;41724;51.176;-0.708;2023-10-09T09:30:42;101749.83;;;20.46;63.07
55517;BME280;41724;51.176;-0.708;2023-10-09T09:33:19;101739.80;;;19.24;65.35
55517;BME280;41724;51.176;-0.708;2023-10-09T09:36:03;101761.62;;;20.52;62.53
55517;BME280;41724;51.176;-0.708;2023-10-09T09:38:32;101761.61;;;21.08;61.59
55517;BME280;41724;51.176;-0.708;2023-10-09T09:40:59;101757.32;;;21.46;59.48
55517;BME280;41724;51.176;-0.708;2023-10-09T09:43:26;101768.37;;;21.33;60.45
55517;BME280;41724;51.176;-0.708;2023-10-09T09:45:54;101760.52;;;21.60;59.64
55517;BME280;41724;51.176;-0.708;2023-10-09T09:48:23;101761.23;;;21.62;57.33
55517;BME280;41724;51.176;-0.708;2023-10-09T09:50:52;101779.18;;;21.86;57.99
55517;BME280;41724;51.176;-0.708;2023-10-09T09:53:20;101791.36;;;21.41;59.14
55517;BME280;41724;51.176;-0.708;2023-10-09T09:55:51;101789.96;;;21.83;58.28
55517;BME280;41724;51.176;-0.708;2023-10-09T09:58:18;101789.55;;;21.64;60.63
55517;BME280;41724;51.176;-0.708;2023-10-09T10:00:47;101773.55;;;20.99;61.37
55517;BME280;41724;51.176;-0.708;2023-10-09T10:03:19;101771.19;;;20.93;60.62
55517;BME280;41724;51.176;-0.708;2023-10-09T10:05:50;101769.07;;;20.69;61.18
55517;BME280;41724;51.176;-0.708;2023-10-09T10:08:20;101770.09;;;20.83;62.50
55517;BME280;41724;51.176;-0.708;2023-10-09T10:10:48;101763.93;;;21.45;60.81
55517;BME280;41724;51.176;-0.708;2023-10-09T10:13:15;101766.01;;;21.83;58.94
55517;BME280;41724;51.176;-0.708;2023-10-09T10:16:00;101780.13;;;22.07;58.11
55517;BME280;41724;51.176;-0.708;2023-10-09T10:18:31;101773.24;;;22.04;58.66
55517;BME280;41724;51.176;-0.708;2023-10-09T10:21:10;101770.08;;;21.76;58.50
55517;BME280;41724;51.176;-0.708;2023-10-09T10:23:38;101769.26;;;22.12;58.37
55517;BME280;41724;51.176;-0.708;2023-10-09T10:26:16;101767.60;;;22.42;57.21
55517;BME280;41724;51.176;-0.708;2023-10-09T10:28:43;101756.09;;;22.87;56.83
55517;BME280;41724;51.176;-0.708;2023-10-09T10:31:11;101746.95;;;23.24;55.65
55517;BME280;41724;51.176;-0.708;2023-10-09T10:34:17;101746.36;;;22.84;54.73
55517;BME280;41724;51.176;-0.708;2023-10-09T10:36:44;101744.98;;;23.63;53.69
55517;BME280;41724;51.176;-0.708;2023-10-09T10:39:11;101747.97;;;23.50;52.63
55517;BME280;41724;51.176;-0.708;2023-10-09T10:41:39;101751.36;;;23.45;52.84
55517;BME280;41724;51.176;-0.708;2023-10-09T10:44:05;101750.06;;;23.63;51.48
55517;BME280;41724;51.176;-0.708;2023-10-09T10:46:32;101756.18;;;23.66;51.53
55517;BME280;41724;51.176;-0.708;2023-10-09T10:49:00;101768.71;;;23.05;54.81
55517;BME280;41724;51.176;-0.708;2023-10-09T10:51:27;101763.60;;;23.42;53.91
55517;BME280;41724;51.176;-0.708;2023-10-09T10:53:54;101767.60;;;22.99;55.67
55517;BME280;41724;51.176;-0.708;2023-10-09T10:56:21;101760.27;;;23.65;53.21
55517;BME280;41724;51.176;-0.708;2023-10-09T10:58:53;101753.47;;;23.11;54.73
55517;BME280;41724;51.176;-0.708;2023-10-09T11:01:20;101748.13;;;23.85;54.11
55517;BME280;41724;51.176;-0.708;2023-10-09T11:03:47;101749.07;;;24.13;53.11
55517;BME280;41724;51.176;-0.708;2023-10-09T11:06:14;101745.71;;;24.10;53.25
55517;BME280;41724;51.176;-0.708;2023-10-09T11:08:50;101733.73;;;23.87;52.90
55517;BME280;41724;51.176;-0.708;2023-10-09T11:11:17;101729.95;;;24.15;51.37
55517;BME280;41724;51.176;-0.708;2023-10-09T11:13:44;101732.19;;;24.21;50.87
55517;BME280;41724;51.176;-0.708;2023-10-09T11:16:11;101722.39;;;24.39;48.14
55517;BME280;41724;51.176;-0.708;2023-10-09T11:18:40;101719.82;;;22.98;51.68
55517;BME280;41724;51.176;-0.708;2023-10-09T11:21:07;101730.20;;;21.73;55.78
55517;BME280;41724;51.176;-0.708;2023-10-09T11:23:35;101734.70;;;23.73;53.25
55517;BME280;41724;51.176;-0.708;2023-10-09T11:26:04;101728.82;;;24.42;50.37
55517;BME280;41724;51.176;-0.708;2023-10-09T11:28:32;101723.48;;;24.73;49.86
55517;BME280;41724;51.176;-0.708;2023-10-09T11:31:06;101719.91;;;24.86;49.27
55517;BME280;41724;51.176;-0.708;2023-10-09T11:33:43;101717.68;;;25.36;50.14
55517;BME280;41724;51.176;-0.708;2023-10-09T11:36:11;101718.31;;;25.75;47.22
55517;BME280;41724;51.176;-0.708;2023-10-09T11:38:38;101725.46;;;26.02;46.99
55517;BME280;41724;51.176;-0.708;2023-10-09T11:41:13;101725.05;;;25.65;48.21
55517;BME280;41724;51.176;-0.708;2023-10-09T11:43:56;101721.46;;;26.17;49.44
55517;BME280;41724;51.176;-0.708;2023-10-09T11:46:23;101723.64;;;26.45;45.02
55517;BME280;41724;51.176;-0.708;2023-10-09T11:49:03;101715.09;;;26.63;44.16
55517;BME280;41724;51.176;-0.708;2023-10-09T11:51:31;101696.92;;;26.24;48.76
55517;BME280;41724;51.176;-0.708;2023-10-09T11:53:57;101689.86;;;26.35;48.76
55517;BME280;41724;51.176;-0.708;2023-10-09T11:56:24;101692.64;;;26.78;46.36
55517;BME280;41724;51.176;-0.708;2023-10-09T11:58:51;101693.85;;;27.17;45.81
55517;BME280;41724;51.176;-0.708;2023-10-09T12:01:18;101686.33;;;27.85;45.35
55517;BME280;41724;51.176;-0.708;2023-10-09T12:03:44;101681.82;;;26.25;43.79
55517;BME280;41724;51.176;-0.708;2023-10-09T12:06:11;101690.26;;;27.00;42.22
55517;BME280;41724;51.176;-0.708;2023-10-09T12:08:39;101698.90;;;27.21;43.62
55517;BME280;41724;51.176;-0.708;2023-10-09T12:11:06;101697.41;;;27.32;45.49
55517;BME280;41724;51.176;-0.708;2023-10-09T12:13:33;101694.59;;;25.48;46.28
55517;BME280;41724;51.176;-0.708;2023-10-09T12:16:01;101687.49;;;27.36;44.75
55517;BME280;41724;51.176;-0.708;2023-10-09T12:18:28;101680.62;;;27.22;42.88
55517;BME280;41724;51.176;-0.708;2023-10-09T12:20:56;101673.24;;;27.35;42.61
55517;BME280;41724;51.176;-0.708;2023-10-09T12:23:23;101678.20;;;25.86;44.68
55517;BME280;41724;51.176;-0.708;2023-10-09T12:25:51;101672.67;;;24.85;46.10
55517;BME280;41724;51.176;-0.708;2023-10-09T12:28:18;101668.81;;;26.20;46.47
55517;BME280;41724;51.176;-0.708;2023-10-09T12:30:46;101652.40;;;27.35;43.09
55517;BME280;41724;51.176;-0.708;2023-10-09T12:33:13;101647.50;;;27.35;43.79
55517;BME280;41724;51.176;-0.708;2023-10-09T12:35:40;101645.59;;;27.45;43.99
55517;BME280;41724;51.176;-0.708;2023-10-09T12:38:08;101645.49;;;27.74;41.12
55517;BME280;41724;51.176;-0.708;2023-10-09T12:40:35;101648.37;;;27.97;40.93
55517;BME280;41724;51.176;-0.708;2023-10-09T12:43:03;101646.52;;;27.09;41.81